sensor_id;sensor_type;location;lat;lon;timestamp;P1;durP1;ratioP1;P2;durP2;ratioP2
22851;SDS011;11592;45.460;9.240;2023-04-29T00:00:09;11.82;;;5.53;;
22851;SDS011;11592;45.460;9.240;2023-04-29T00:02:37;12.85;;;5.72;;
22851;SDS011;11592;45.460;9.240;2023-04-29T00:05:04;13.30;;;6.10;;
22851;SDS011;11592;45.460;9.240;2023-04-29T00:07:32;14.90;;;6.38;;
22851;SDS011;11592;45.460;9.240;2023-04-29T00:09:59;10.45;;;5.93;;
22851;SDS011;11592;45.460;9.240;2023-04-29T00:12:26;12.77;;;5.60;;
22851;SDS011;11592;45.460;9.240;2023-04-29T00:14:53;16.98;;;6.25;;
22851;SDS011;11592;45.460;9.240;2023-04-29T00:17:20;11.20;;;5.57;;
22851;SDS011;11592;45.460;9.240;2023-04-29T00:19:47;8.85;;;5.30;;
22851;SDS011;11592;45.460;9.240;2023-04-29T00:22:13;9.30;;;4.97;;
22851;SDS011;11592;45.460;9.240;2023-04-29T00:24:40;16.30;;;5.45;;
22851;SDS011;11592;45.460;9.240;2023-04-29T00:27:07;10.40;;;5.13;;
22851;SDS011;11592;45.460;9.240;2023-04-29T00:29:34;13.43;;;6.57;;
22851;SDS011;11592;45.460;9.240;2023-04-29T00:32:01;10.77;;;5.60;;
22851;SDS011;11592;45.460;9.240;2023-04-29T00:34:28;11.20;;;5.22;;
22851;SDS011;11592;45.460;9.240;2023-04-29T00:36:55;12.43;;;5.50;;
22851;SDS011;11592;45.460;9.240;2023-04-29T00:39:22;12.30;;;5.40;;
22851;SDS011;11592;45.460;9.240;2023-04-29T00:41:49;14.77;;;5.88;;
22851;SDS011;11592;45.460;9.240;2023-04-29T00:44:16;9.98;;;5.40;;
22851;SDS011;11592;45.460;9.240;2023-04-29T00:46:42;11.98;;;5.28;;
22851;SDS011;11592;45.460;9.240;2023-04-29T00:49:09;8.70;;;5.18;;
22851;SDS011;11592;45.460;9.240;2023-04-29T00:51:38;10.30;;;5.78;;
22851;SDS011;11592;45.460;9.240;2023-04-29T00:54:06;14.70;;;5.65;;
22851;SDS011;11592;45.460;9.240;2023-04-29T00:56:34;9.35;;;5.35;;
22851;SDS011;11592;45.460;9.240;2023-04-29T00:59:02;11.52;;;5.43;;
22851;SDS011;11592;45.460;9.240;2023-04-29T01:01:30;11.32;;;5.50;;
22851;SDS011;11592;45.460;9.240;2023-04-29T01:03:57;10.25;;;5.45;;
22851;SDS011;11592;45.460;9.240;2023-04-29T01:09:15;10.40;;;5.53;;
22851;SDS011;11592;45.460;9.240;2023-04-29T01:14:47;10.75;;;5.93;;
22851;SDS011;11592;45.460;9.240;2023-04-29T01:17:20;14.48;;;5.57;;
22851;SDS011;11592;45.460;9.240;2023-04-29T01:19:53;11.00;;;5.47;;
22851;SDS011;11592;45.460;9.240;2023-04-29T01:22:22;6.93;;;4.88;;
22851;SDS011;11592;45.460;9.240;2023-04-29T01:24:49;15.20;;;5.82;;
22851;SDS011;11592;45.460;9.240;2023-04-29T01:27:20;10.18;;;5.10;;
22851;SDS011;11592;45.460;9.240;2023-04-29T01:29:58;8.18;;;5.22;;
22851;SDS011;11592;45.460;9.240;2023-04-29T01:32:45;9.07;;;4.78;;
22851;SDS011;11592;45.460;9.240;2023-04-29T01:40:33;9.50;;;5.32;;
22851;SDS011;11592;45.460;9.240;2023-04-29T01:43:03;12.20;;;5.43;;
22851;SDS011;11592;45.460;9.240;2023-04-29T01:45:34;9.32;;;5.22;;
22851;SDS011;11592;45.460;9.240;2023-04-29T01:48:07;8.20;;;5.30;;
22851;SDS011;11592;45.460;9.240;2023-04-29T01:50:34;13.10;;;5.40;;
22851;SDS011;11592;45.460;9.240;2023-04-29T01:53:01;11.35;;;5.40;;
22851;SDS011;11592;45.460;9.240;2023-04-29T01:55:28;11.05;;;5.85;;
22851;SDS011;11592;45.460;9.240;2023-04-29T01:57:55;9.38;;;5.05;;
22851;SDS011;11592;45.460;9.240;2023-04-29T02:00:21;12.15;;;5.53;;
22851;SDS011;11592;45.460;9.240;2023-04-29T02:02:49;13.93;;;5.90;;
22851;SDS011;11592;45.460;9.240;2023-04-29T02:05:15;11.43;;;5.35;;
22851;SDS011;11592;45.460;9.240;2023-04-29T02:07:42;7.75;;;5.13;;
22851;SDS011;11592;45.460;9.240;2023-04-29T02:10:09;9.55;;;5.28;;
22851;SDS011;11592;45.460;9.240;2023-04-29T02:12:37;13.30;;;5.22;;
22851;SDS011;11592;45.460;9.240;2023-04-29T02:15:04;9.38;;;5.55;;
22851;SDS011;11592;45.460;9.240;2023-04-29T02:17:32;10.30;;;4.93;;
22851;SDS011;11592;45.460;9.240;2023-04-29T02:19:59;13.27;;;5.43;;
22851;SDS011;11592;45.460;9.240;2023-04-29T02:22:26;10.07;;;5.30;;
22851;SDS011;11592;45.460;9.240;2023-04-29T02:24:53;8.82;;;5.07;;
22851;SDS011;11592;45.460;9.240;2023-04-29T02:27:20;10.73;;;5.07;;
22851;SDS011;11592;45.460;9.240;2023-04-29T02:29:48;9.48;;;5.60;;
22851;SDS011;11592;45.460;9.240;2023-04-29T02:32:15;10.48;;;5.80;;
22851;SDS011;11592;45.460;9.240;2023-04-29T02:34:45;11.55;;;6.05;;
22851;SDS011;11592;45.460;9.240;2023-04-29T02:37:12;9.02;;;5.90;;
22851;SDS011;11592;45.460;9.240;2023-04-29T02:39:39;12.52;;;5.90;;
22851;SDS011;11592;45.460;9.240;2023-04-29T02:42:06;12.95;;;5.63;;
22851;SDS011;11592;45.460;9.240;2023-04-29T02:44:33;13.55;;;5.38;;
22851;SDS011;11592;45.460;9.240;2023-04-29T02:47:00;9.35;;;5.43;;
22851;SDS011;11592;45.460;9.240;2023-04-29T02:49:27;11.80;;;6.38;;
22851;SDS011;11592;45.460;9.240;2023-04-29T02:51:53;12.40;;;6.03;;
22851;SDS011;11592;45.460;9.240;2023-04-29T02:54:20;12.20;;;5.95;;
22851;SDS011;11592;45.460;9.240;2023-04-29T02:56:47;9.55;;;6.10;;
22851;SDS011;11592;45.460;9.240;2023-04-29T02:59:14;7.13;;;5.18;;
22851;SDS011;11592;45.460;9.240;2023-04-29T03:01:41;12.68;;;5.38;;
22851;SDS011;11592;45.460;9.240;2023-04-29T03:04:08;11.77;;;5.32;;
22851;SDS011;11592;45.460;9.240;2023-04-29T03:06:35;14.27;;;5.70;;
22851;SDS011;11592;45.460;9.240;2023-04-29T03:09:02;10.82;;;5.03;;
22851;SDS011;11592;45.460;9.240;2023-04-29T03:11:29;10.20;;;5.18;;
22851;SDS011;11592;45.460;9.240;2023-04-29T03:13:56;9.60;;;5.78;;
22851;SDS011;11592;45.460;9.240;2023-04-29T03:16:23;11.25;;;5.93;;
22851;SDS011;11592;45.460;9.240;2023-04-29T03:18:50;8.88;;;5.57;;
22851;SDS011;11592;45.460;9.240;2023-04-29T03:21:16;13.43;;;5.70;;
22851;SDS011;11592;45.460;9.240;2023-04-29T03:23:44;9.88;;;5.82;;
22851;SDS011;11592;45.460;9.240;2023-04-29T03:26:10;13.75;;;5.55;;
22851;SDS011;11592;45.460;9.240;2023-04-29T03:28:37;7.97;;;4.97;;
22851;SDS011;11592;45.460;9.240;2023-04-29T03:31:04;11.13;;;5.45;;
22851;SDS011;11592;45.460;9.240;2023-04-29T03:33:30;11.68;;;6.22;;
22851;SDS011;11592;45.460;9.240;2023-04-29T03:35:57;11.98;;;6.00;;
22851;SDS011;11592;45.460;9.240;2023-04-29T03:38:24;15.85;;;7.72;;
22851;SDS011;11592;45.460;9.240;2023-04-29T03:40:51;13.23;;;7.65;;
22851;SDS011;11592;45.460;9.240;2023-04-29T03:43:18;15.40;;;6.97;;
22851;SDS011;11592;45.460;9.240;2023-04-29T03:45:45;13.40;;;6.55;;
22851;SDS011;11592;45.460;9.240;2023-04-29T03:48:11;20.25;;;6.63;;
22851;SDS011;11592;45.460;9.240;2023-04-29T03:50:39;12.32;;;7.55;;
22851;SDS011;11592;45.460;9.240;2023-04-29T03:53:06;16.52;;;7.30;;
22851;SDS011;11592;45.460;9.240;2023-04-29T03:55:33;12.05;;;6.50;;
22851;SDS011;11592;45.460;9.240;2023-04-29T03:58:00;13.70;;;6.95;;
22851;SDS011;11592;45.460;9.240;2023-04-29T04:00:27;18.40;;;8.15;;
22851;SDS011;11592;45.460;9.240;2023-04-29T04:02:56;14.00;;;7.38;;
22851;SDS011;11592;45.460;9.240;2023-04-29T04:05:24;13.52;;;6.82;;
22851;SDS011;11592;45.460;9.240;2023-04-29T04:07:51;12.10;;;5.80;;
22851;SDS011;11592;45.460;9.240;2023-04-29T04:10:18;14.30;;;7.28;;
22851;SDS011;11592;45.460;9.240;2023-04-29T04:12:45;8.25;;;5.80;;
22851;SDS011;11592;45.460;9.240;2023-04-29T04:15:12;17.33;;;6.18;;
22851;SDS011;11592;45.460;9.240;2023-04-29T04:17:40;10.10;;;6.03;;
22851;SDS011;11592;45.460;9.240;2023-04-29T04:20:07;14.15;;;6.43;;
22851;SDS011;11592;45.460;9.240;2023-04-29T04:22:34;11.57;;;6.50;;
22851;SDS011;11592;45.460;9.240;2023-04-29T04:25:01;11.52;;;5.60;;
22851;SDS011;11592;45.460;9.240;2023-04-29T04:27:27;8.60;;;5.70;;
22851;SDS011;11592;45.460;9.240;2023-04-29T04:29:54;7.10;;;5.30;;
22851;SDS011;11592;45.460;9.240;2023-04-29T04:32:21;14.38;;;5.18;;
22851;SDS011;11592;45.460;9.240;2023-04-29T04:34:49;10.90;;;5.38;;
22851;SDS011;11592;45.460;9.240;2023-04-29T04:37:15;12.50;;;5.60;;
22851;SDS011;11592;45.460;9.240;2023-04-29T04:39:42;11.95;;;5.22;;
22851;SDS011;11592;45.460;9.240;2023-04-29T04:42:09;11.20;;;5.28;;
22851;SDS011;11592;45.460;9.240;2023-04-29T04:44:36;9.13;;;5.22;;
22851;SDS011;11592;45.460;9.240;2023-04-29T04:47:03;12.30;;;4.72;;
22851;SDS011;11592;45.460;9.240;2023-04-29T04:49:31;9.40;;;4.75;;
22851;SDS011;11592;45.460;9.240;2023-04-29T04:51:58;9.32;;;4.68;;
22851;SDS011;11592;45.460;9.240;2023-04-29T04:54:25;14.60;;;5.45;;
22851;SDS011;11592;45.460;9.240;2023-04-29T04:56:51;10.57;;;4.93;;
22851;SDS011;11592;45.460;9.240;2023-04-29T04:59:18;10.82;;;5.45;;
22851;SDS011;11592;45.460;9.240;2023-04-29T05:01:46;9.70;;;5.55;;
22851;SDS011;11592;45.460;9.240;2023-04-29T05:04:12;10.93;;;5.63;;
22851;SDS011;11592;45.460;9.240;2023-04-29T05:06:40;10.20;;;5.70;;
22851;SDS011;11592;45.460;9.240;2023-04-29T05:09:07;7.88;;;4.97;;
22851;SDS011;11592;45.460;9.240;2023-04-29T05:11:34;11.50;;;5.20;;
22851;SDS011;11592;45.460;9.240;2023-04-29T05:14:01;10.48;;;5.05;;
22851;SDS011;11592;45.460;9.240;2023-04-29T05:16:27;10.30;;;5.53;;
22851;SDS011;11592;45.460;9.240;2023-04-29T05:18:54;15.27;;;5.60;;
22851;SDS011;11592;45.460;9.240;2023-04-29T05:21:21;9.75;;;5.25;;
22851;SDS011;11592;45.460;9.240;2023-04-29T05:23:48;12.57;;;5.38;;
22851;SDS011;11592;45.460;9.240;2023-04-29T05:26:15;11.52;;;5.57;;
22851;SDS011;11592;45.460;9.240;2023-04-29T05:28:41;15.95;;;6.57;;
22851;SDS011;11592;45.460;9.240;2023-04-29T05:31:08;11.63;;;5.53;;
22851;SDS011;11592;45.460;9.240;2023-04-29T05:33:35;9.88;;;4.95;;
22851;SDS011;11592;45.460;9.240;2023-04-29T05:36:02;15.35;;;5.28;;
22851;SDS011;11592;45.460;9.240;2023-04-29T05:38:28;10.23;;;5.75;;
22851;SDS011;11592;45.460;9.240;2023-04-29T05:40:55;12.25;;;5.72;;
22851;SDS011;11592;45.460;9.240;2023-04-29T05:43:22;11.55;;;6.13;;
22851;SDS011;11592;45.460;9.240;2023-04-29T05:45:49;10.13;;;5.53;;
22851;SDS011;11592;45.460;9.240;2023-04-29T05:48:16;13.13;;;5.70;;
22851;SDS011;11592;45.460;9.240;2023-04-29T05:50:43;9.52;;;5.47;;
22851;SDS011;11592;45.460;9.240;2023-04-29T05:53:10;10.20;;;5.60;;
22851;SDS011;11592;45.460;9.240;2023-04-29T05:55:38;10.20;;;5.55;;
22851;SDS011;11592;45.460;9.240;2023-04-29T05:58:05;12.57;;;5.90;;
22851;SDS011;11592;45.460;9.240;2023-04-29T06:00:31;15.57;;;6.45;;
22851;SDS011;11592;45.460;9.240;2023-04-29T06:02:58;22.45;;;8.48;;
22851;SDS011;11592;45.460;9.240;2023-04-29T06:05:25;19.45;;;8.05;;
22851;SDS011;11592;45.460;9.240;2023-04-29T06:07:53;21.08;;;8.35;;
22851;SDS011;11592;45.460;9.240;2023-04-29T06:10:20;13.02;;;6.80;;
22851;SDS011;11592;45.460;9.240;2023-04-29T06:12:46;14.35;;;6.57;;
22851;SDS011;11592;45.460;9.240;2023-04-29T06:15:16;9.73;;;6.65;;
22851;SDS011;11592;45.460;9.240;2023-04-29T06:17:43;14.82;;;6.65;;
22851;SDS011;11592;45.460;9.240;2023-04-29T06:20:10;13.93;;;6.63;;
22851;SDS011;11592;45.460;9.240;2023-04-29T06:22:37;10.82;;;6.03;;
22851;SDS011;11592;45.460;9.240;2023-04-29T06:25:04;15.32;;;7.20;;
22851;SDS011;11592;45.460;9.240;2023-04-29T06:27:31;11.43;;;6.80;;
22851;SDS011;11592;45.460;9.240;2023-04-29T06:29:57;12.88;;;6.90;;
22851;SDS011;11592;45.460;9.240;2023-04-29T06:32:24;11.77;;;7.38;;
22851;SDS011;11592;45.460;9.240;2023-04-29T06:34:51;15.88;;;8.57;;
22851;SDS011;11592;45.460;9.240;2023-04-29T06:37:18;18.30;;;8.32;;
22851;SDS011;11592;45.460;9.240;2023-04-29T06:39:44;13.98;;;7.35;;
22851;SDS011;11592;45.460;9.240;2023-04-29T06:42:11;13.05;;;7.30;;
22851;SDS011;11592;45.460;9.240;2023-04-29T06:44:38;13.60;;;8.30;;
22851;SDS011;11592;45.460;9.240;2023-04-29T06:47:05;14.85;;;8.23;;
22851;SDS011;11592;45.460;9.240;2023-04-29T06:49:32;18.67;;;9.65;;
22851;SDS011;11592;45.460;9.240;2023-04-29T06:51:59;16.02;;;9.75;;
22851;SDS011;11592;45.460;9.240;2023-04-29T06:54:27;13.63;;;8.25;;
22851;SDS011;11592;45.460;9.240;2023-04-29T06:56:54;18.17;;;10.65;;
22851;SDS011;11592;45.460;9.240;2023-04-29T06:59:21;16.85;;;9.48;;
22851;SDS011;11592;45.460;9.240;2023-04-29T07:01:47;12.93;;;9.13;;
22851;SDS011;11592;45.460;9.240;2023-04-29T07:04:15;15.50;;;9.43;;
22851;SDS011;11592;45.460;9.240;2023-04-29T07:06:41;16.70;;;9.07;;
22851;SDS011;11592;45.460;9.240;2023-04-29T07:09:12;17.95;;;9.65;;
22851;SDS011;11592;45.460;9.240;2023-04-29T07:11:39;18.40;;;10.55;;
22851;SDS011;11592;45.460;9.240;2023-04-29T07:14:06;17.98;;;9.55;;
22851;SDS011;11592;45.460;9.240;2023-04-29T07:16:33;22.88;;;11.00;;
22851;SDS011;11592;45.460;9.240;2023-04-29T07:19:00;16.70;;;10.35;;
22851;SDS011;11592;45.460;9.240;2023-04-29T07:21:27;14.98;;;10.57;;
22851;SDS011;11592;45.460;9.240;2023-04-29T07:23:55;20.38;;;11.32;;
22851;SDS011;11592;45.460;9.240;2023-04-29T07:26:24;19.70;;;11.63;;
22851;SDS011;11592;45.460;9.240;2023-04-29T07:28:51;21.45;;;12.45;;
22851;SDS011;11592;45.460;9.240;2023-04-29T07:31:17;19.10;;;12.30;;
22851;SDS011;11592;45.460;9.240;2023-04-29T07:33:45;19.08;;;12.15;;
22851;SDS011;11592;45.460;9.240;2023-04-29T07:36:12;17.20;;;11.48;;
22851;SDS011;11592;45.460;9.240;2023-04-29T07:38:39;19.48;;;12.32;;
22851;SDS011;11592;45.460;9.240;2023-04-29T07:41:06;22.67;;;12.10;;
22851;SDS011;11592;45.460;9.240;2023-04-29T07:43:33;17.38;;;11.85;;
22851;SDS011;11592;45.460;9.240;2023-04-29T07:45:59;19.55;;;11.38;;
22851;SDS011;11592;45.460;9.240;2023-04-29T07:48:26;19.58;;;11.93;;
22851;SDS011;11592;45.460;9.240;2023-04-29T07:50:53;16.25;;;11.25;;
22851;SDS011;11592;45.460;9.240;2023-04-29T07:53:20;17.70;;;11.63;;
22851;SDS011;11592;45.460;9.240;2023-04-29T07:55:47;18.20;;;11.65;;
22851;SDS011;11592;45.460;9.240;2023-04-29T07:58:14;19.48;;;10.52;;
22851;SDS011;11592;45.460;9.240;2023-04-29T08:00:41;18.05;;;11.13;;
22851;SDS011;11592;45.460;9.240;2023-04-29T08:03:07;16.00;;;10.45;;
22851;SDS011;11592;45.460;9.240;2023-04-29T08:05:35;21.73;;;11.95;;
22851;SDS011;11592;45.460;9.240;2023-04-29T08:08:02;17.73;;;11.68;;
22851;SDS011;11592;45.460;9.240;2023-04-29T08:10:29;15.65;;;11.52;;
22851;SDS011;11592;45.460;9.240;2023-04-29T08:12:56;17.70;;;11.30;;
22851;SDS011;11592;45.460;9.240;2023-04-29T08:15:23;21.80;;;10.98;;
22851;SDS011;11592;45.460;9.240;2023-04-29T08:17:50;23.15;;;11.95;;
22851;SDS011;11592;45.460;9.240;2023-04-29T08:20:17;21.60;;;10.73;;
22851;SDS011;11592;45.460;9.240;2023-04-29T08:22:43;16.17;;;10.70;;
22851;SDS011;11592;45.460;9.240;2023-04-29T08:25:10;16.08;;;9.55;;
22851;SDS011;11592;45.460;9.240;2023-04-29T08:27:37;16.45;;;9.10;;
22851;SDS011;11592;45.460;9.240;2023-04-29T08:30:04;15.10;;;8.40;;
22851;SDS011;11592;45.460;9.240;2023-04-29T08:32:31;13.50;;;9.30;;
22851;SDS011;11592;45.460;9.240;2023-04-29T08:35:00;18.42;;;10.85;;
22851;SDS011;11592;45.460;9.240;2023-04-29T08:37:27;15.52;;;8.60;;
22851;SDS011;11592;45.460;9.240;2023-04-29T08:39:54;16.65;;;9.20;;
22851;SDS011;11592;45.460;9.240;2023-04-29T08:42:27;15.82;;;9.32;;
22851;SDS011;11592;45.460;9.240;2023-04-29T08:44:58;15.75;;;8.80;;
22851;SDS011;11592;45.460;9.240;2023-04-29T08:47:28;15.80;;;9.57;;
22851;SDS011;11592;45.460;9.240;2023-04-29T08:50:00;20.35;;;9.77;;
22851;SDS011;11592;45.460;9.240;2023-04-29T08:52:31;18.58;;;10.00;;
22851;SDS011;11592;45.460;9.240;2023-04-29T08:54:58;15.60;;;9.43;;
22851;SDS011;11592;45.460;9.240;2023-04-29T08:57:28;17.30;;;9.00;;
22851;SDS011;11592;45.460;9.240;2023-04-29T08:59:58;14.52;;;8.82;;
22851;SDS011;11592;45.460;9.240;2023-04-29T09:02:26;15.90;;;9.15;;
22851;SDS011;11592;45.460;9.240;2023-04-29T09:04:56;15.05;;;8.60;;
22851;SDS011;11592;45.460;9.240;2023-04-29T09:07:31;16.23;;;9.10;;
22851;SDS011;11592;45.460;9.240;2023-04-29T09:09:59;13.90;;;8.65;;
22851;SDS011;11592;45.460;9.240;2023-04-29T09:12:29;14.95;;;9.52;;
22851;SDS011;11592;45.460;9.240;2023-04-29T09:14:56;17.92;;;9.35;;
22851;SDS011;11592;45.460;9.240;2023-04-29T09:17:41;13.18;;;8.60;;
22851;SDS011;11592;45.460;9.240;2023-04-29T09:22:48;15.70;;;8.40;;
22851;SDS011;11592;45.460;9.240;2023-04-29T09:25:22;12.82;;;8.85;;
22851;SDS011;11592;45.460;9.240;2023-04-29T09:27:49;15.88;;;8.48;;
22851;SDS011;11592;45.460;9.240;2023-04-29T09:30:16;11.48;;;7.88;;
22851;SDS011;11592;45.460;9.240;2023-04-29T09:32:44;12.38;;;8.05;;
22851;SDS011;11592;45.460;9.240;2023-04-29T09:37:52;12.02;;;7.97;;
22851;SDS011;11592;45.460;9.240;2023-04-29T09:40:33;14.43;;;7.95;;
22851;SDS011;11592;45.460;9.240;2023-04-29T09:43:15;14.23;;;8.80;;
22851;SDS011;11592;45.460;9.240;2023-04-29T09:45:47;13.43;;;8.57;;
22851;SDS011;11592;45.460;9.240;2023-04-29T09:48:14;17.45;;;8.70;;
22851;SDS011;11592;45.460;9.240;2023-04-29T09:50:42;18.05;;;8.43;;
22851;SDS011;11592;45.460;9.240;2023-04-29T09:53:10;17.17;;;7.90;;
22851;SDS011;11592;45.460;9.240;2023-04-29T09:58:32;12.20;;;7.15;;
22851;SDS011;11592;45.460;9.240;2023-04-29T10:01:03;11.50;;;7.80;;
22851;SDS011;11592;45.460;9.240;2023-04-29T10:03:31;13.68;;;7.97;;
22851;SDS011;11592;45.460;9.240;2023-04-29T10:06:04;14.63;;;8.98;;
22851;SDS011;11592;45.460;9.240;2023-04-29T10:08:32;13.13;;;7.55;;
22851;SDS011;11592;45.460;9.240;2023-04-29T10:11:02;13.13;;;8.13;;
22851;SDS011;11592;45.460;9.240;2023-04-29T10:13:29;12.25;;;7.75;;
22851;SDS011;11592;45.460;9.240;2023-04-29T10:16:00;13.70;;;8.18;;
22851;SDS011;11592;45.460;9.240;2023-04-29T10:18:51;12.07;;;7.47;;
22851;SDS011;11592;45.460;9.240;2023-04-29T10:21:28;14.63;;;7.15;;
22851;SDS011;11592;45.460;9.240;2023-04-29T10:23:57;13.93;;;8.20;;
22851;SDS011;11592;45.460;9.240;2023-04-29T10:26:28;14.07;;;9.15;;
22851;SDS011;11592;45.460;9.240;2023-04-29T10:28:57;16.52;;;8.77;;
22851;SDS011;11592;45.460;9.240;2023-04-29T10:31:25;11.75;;;7.60;;
22851;SDS011;11592;45.460;9.240;2023-04-29T10:33:56;13.50;;;7.45;;
22851;SDS011;11592;45.460;9.240;2023-04-29T10:36:24;12.18;;;8.48;;
22851;SDS011;11592;45.460;9.240;2023-04-29T10:38:56;10.13;;;6.72;;
22851;SDS011;11592;45.460;9.240;2023-04-29T10:41:25;12.93;;;7.05;;
22851;SDS011;11592;45.460;9.240;2023-04-29T10:43:55;14.55;;;8.13;;
22851;SDS011;11592;45.460;9.240;2023-04-29T10:46:25;14.93;;;8.05;;
22851;SDS011;11592;45.460;9.240;2023-04-29T10:48:56;11.43;;;7.65;;
22851;SDS011;11592;45.460;9.240;2023-04-29T10:51:30;12.60;;;8.75;;
22851;SDS011;11592;45.460;9.240;2023-04-29T10:54:14;9.60;;;7.10;;
22851;SDS011;11592;45.460;9.240;2023-04-29T10:56:42;18.15;;;9.20;;
22851;SDS011;11592;45.460;9.240;2023-04-29T10:59:10;13.73;;;7.45;;
22851;SDS011;11592;45.460;9.240;2023-04-29T11:01:43;11.93;;;6.90;;
22851;SDS011;11592;45.460;9.240;2023-04-29T11:04:11;12.30;;;8.10;;
22851;SDS011;11592;45.460;9.240;2023-04-29T11:06:40;14.65;;;7.25;;
22851;SDS011;11592;45.460;9.240;2023-04-29T11:09:19;11.45;;;7.78;;
22851;SDS011;11592;45.460;9.240;2023-04-29T11:12:00;13.07;;;7.55;;
22851;SDS011;11592;45.460;9.240;2023-04-29T11:14:35;12.57;;;7.53;;
22851;SDS011;11592;45.460;9.240;2023-04-29T11:17:09;11.50;;;7.18;;
22851;SDS011;11592;45.460;9.240;2023-04-29T11:19:41;12.63;;;8.50;;
22851;SDS011;11592;45.460;9.240;2023-04-29T11:24:52;11.45;;;7.50;;
22851;SDS011;11592;45.460;9.240;2023-04-29T11:27:25;12.65;;;6.82;;
22851;SDS011;11592;45.460;9.240;2023-04-29T11:32:28;12.25;;;6.78;;
22851;SDS011;11592;45.460;9.240;2023-04-29T11:35:13;12.43;;;6.40;;
22851;SDS011;11592;45.460;9.240;2023-04-29T11:37:41;16.42;;;8.05;;
22851;SDS011;11592;45.460;9.240;2023-04-29T11:40:11;13.55;;;7.35;;
22851;SDS011;11592;45.460;9.240;2023-04-29T11:42:45;10.02;;;6.30;;
22851;SDS011;11592;45.460;9.240;2023-04-29T11:45:15;10.60;;;6.70;;
22851;SDS011;11592;45.460;9.240;2023-04-29T11:47:43;13.20;;;7.13;;
22851;SDS011;11592;45.460;9.240;2023-04-29T11:50:11;10.43;;;6.78;;
22851;SDS011;11592;45.460;9.240;2023-04-29T11:52:41;9.75;;;6.78;;
22851;SDS011;11592;45.460;9.240;2023-04-29T11:55:10;10.77;;;5.65;;
22851;SDS011;11592;45.460;9.240;2023-04-29T11:57:37;12.57;;;6.72;;
22851;SDS011;11592;45.460;9.240;2023-04-29T12:00:09;11.27;;;6.80;;
22851;SDS011;11592;45.460;9.240;2023-04-29T12:02:43;12.20;;;6.85;;
22851;SDS011;11592;45.460;9.240;2023-04-29T12:05:11;10.48;;;6.15;;
22851;SDS011;11592;45.460;9.240;2023-04-29T12:07:39;13.43;;;7.10;;
22851;SDS011;11592;45.460;9.240;2023-04-29T12:10:07;11.23;;;6.00;;
22851;SDS011;11592;45.460;9.240;2023-04-29T12:12:36;9.27;;;5.32;;
22851;SDS011;11592;45.460;9.240;2023-04-29T12:15:06;12.75;;;5.40;;
22851;SDS011;11592;45.460;9.240;2023-04-29T12:17:35;9.00;;;5.22;;
22851;SDS011;11592;45.460;9.240;2023-04-29T12:20:03;8.25;;;5.45;;
22851;SDS011;11592;45.460;9.240;2023-04-29T12:22:31;10.68;;;5.32;;
22851;SDS011;11592;45.460;9.240;2023-04-29T12:24:58;9.85;;;5.43;;
22851;SDS011;11592;45.460;9.240;2023-04-29T12:27:25;11.80;;;6.32;;
22851;SDS011;11592;45.460;9.240;2023-04-29T12:29:52;12.02;;;5.88;;
22851;SDS011;11592;45.460;9.240;2023-04-29T12:32:23;9.77;;;5.30;;
22851;SDS011;11592;45.460;9.240;2023-04-29T12:34:50;10.00;;;5.93;;
22851;SDS011;11592;45.460;9.240;2023-04-29T12:37:18;9.23;;;4.47;;
22851;SDS011;11592;45.460;9.240;2023-04-29T12:39:48;11.90;;;5.30;;
22851;SDS011;11592;45.460;9.240;2023-04-29T12:42:16;10.77;;;5.80;;
22851;SDS011;11592;45.460;9.240;2023-04-29T12:44:46;8.20;;;5.30;;
22851;SDS011;11592;45.460;9.240;2023-04-29T12:47:14;9.05;;;4.65;;
22851;SDS011;11592;45.460;9.240;2023-04-29T12:49:42;10.90;;;5.75;;
22851;SDS011;11592;45.460;9.240;2023-04-29T12:52:13;13.57;;;7.18;;
22851;SDS011;11592;45.460;9.240;2023-04-29T12:54:39;11.48;;;7.30;;
22851;SDS011;11592;45.460;9.240;2023-04-29T12:57:09;9.18;;;5.30;;
22851;SDS011;11592;45.460;9.240;2023-04-29T12:59:37;11.20;;;7.05;;
22851;SDS011;11592;45.460;9.240;2023-04-29T13:02:06;14.98;;;6.50;;
22851;SDS011;11592;45.460;9.240;2023-04-29T13:04:33;10.13;;;6.20;;
22851;SDS011;11592;45.460;9.240;2023-04-29T13:07:00;10.77;;;6.45;;
22851;SDS011;11592;45.460;9.240;2023-04-29T13:09:29;10.48;;;5.47;;
22851;SDS011;11592;45.460;9.240;2023-04-29T13:11:56;12.85;;;5.55;;
22851;SDS011;11592;45.460;9.240;2023-04-29T13:14:24;13.52;;;6.47;;
22851;SDS011;11592;45.460;9.240;2023-04-29T13:16:52;13.23;;;6.45;;
22851;SDS011;11592;45.460;9.240;2023-04-29T13:19:19;11.60;;;5.25;;
22851;SDS011;11592;45.460;9.240;2023-04-29T13:24:31;10.20;;;5.93;;
22851;SDS011;11592;45.460;9.240;2023-04-29T13:27:00;9.95;;;6.50;;
22851;SDS011;11592;45.460;9.240;2023-04-29T13:29:28;13.73;;;7.05;;
22851;SDS011;11592;45.460;9.240;2023-04-29T13:31:55;14.15;;;6.85;;
22851;SDS011;11592;45.460;9.240;2023-04-29T13:34:22;12.25;;;5.82;;
22851;SDS011;11592;45.460;9.240;2023-04-29T13:36:49;10.40;;;5.80;;
22851;SDS011;11592;45.460;9.240;2023-04-29T13:39:16;6.30;;;4.80;;
22851;SDS011;11592;45.460;9.240;2023-04-29T13:41:45;13.43;;;5.55;;
22851;SDS011;11592;45.460;9.240;2023-04-29T13:44:12;9.02;;;4.55;;
22851;SDS011;11592;45.460;9.240;2023-04-29T13:46:42;10.23;;;4.20;;
22851;SDS011;11592;45.460;9.240;2023-04-29T13:49:10;11.73;;;5.90;;
22851;SDS011;11592;45.460;9.240;2023-04-29T13:51:57;11.98;;;6.15;;
22851;SDS011;11592;45.460;9.240;2023-04-29T13:54:44;8.82;;;5.65;;
22851;SDS011;11592;45.460;9.240;2023-04-29T13:57:14;8.90;;;5.68;;
22851;SDS011;11592;45.460;9.240;2023-04-29T14:00:01;8.75;;;4.80;;
22851;SDS011;11592;45.460;9.240;2023-04-29T14:02:48;11.85;;;5.70;;
22851;SDS011;11592;45.460;9.240;2023-04-29T14:05:23;12.32;;;5.88;;
22851;SDS011;11592;45.460;9.240;2023-04-29T14:07:50;11.05;;;5.32;;
22851;SDS011;11592;45.460;9.240;2023-04-29T14:10:17;8.05;;;4.97;;
22851;SDS011;11592;45.460;9.240;2023-04-29T14:12:44;8.65;;;6.30;;
22851;SDS011;11592;45.460;9.240;2023-04-29T14:15:10;8.93;;;5.05;;
22851;SDS011;11592;45.460;9.240;2023-04-29T14:17:37;9.48;;;5.40;;
22851;SDS011;11592;45.460;9.240;2023-04-29T14:20:04;7.88;;;4.78;;
22851;SDS011;11592;45.460;9.240;2023-04-29T14:22:32;10.63;;;5.00;;
22851;SDS011;11592;45.460;9.240;2023-04-29T14:24:58;9.95;;;4.97;;
22851;SDS011;11592;45.460;9.240;2023-04-29T14:27:25;8.63;;;5.43;;
22851;SDS011;11592;45.460;9.240;2023-04-29T14:29:52;8.10;;;5.22;;
22851;SDS011;11592;45.460;9.240;2023-04-29T14:32:19;7.03;;;4.55;;
22851;SDS011;11592;45.460;9.240;2023-04-29T14:34:45;8.35;;;5.25;;
22851;SDS011;11592;45.460;9.240;2023-04-29T14:37:12;9.25;;;5.05;;
22851;SDS011;11592;45.460;9.240;2023-04-29T14:39:39;8.43;;;5.28;;
22851;SDS011;11592;45.460;9.240;2023-04-29T14:42:06;14.30;;;5.20;;
22851;SDS011;11592;45.460;9.240;2023-04-29T14:44:32;7.75;;;4.63;;
22851;SDS011;11592;45.460;9.240;2023-04-29T14:46:59;9.30;;;5.22;;
22851;SDS011;11592;45.460;9.240;2023-04-29T14:49:26;6.43;;;5.28;;
22851;SDS011;11592;45.460;9.240;2023-04-29T14:51:56;11.68;;;5.38;;
22851;SDS011;11592;45.460;9.240;2023-04-29T14:54:23;6.88;;;4.82;;
22851;SDS011;11592;45.460;9.240;2023-04-29T14:56:52;8.00;;;5.10;;
22851;SDS011;11592;45.460;9.240;2023-04-29T14:59:19;8.93;;;4.57;;
22851;SDS011;11592;45.460;9.240;2023-04-29T15:01:46;10.85;;;5.00;;
22851;SDS011;11592;45.460;9.240;2023-04-29T15:04:13;9.80;;;5.80;;
22851;SDS011;11592;45.460;9.240;2023-04-29T15:06:40;8.98;;;5.35;;
22851;SDS011;11592;45.460;9.240;2023-04-29T15:09:08;9.05;;;5.50;;